INFORMACIÓN METAR y TAF
METAR FOR ELLX
ADDS - METARS form results

(0256 UTC 07 July 2020)
Data provider http://aviationweather.gov/metar/data/
 
METAR text: ELLX 070250Z 34004KT CAVOK 08/06 Q1022 NOSIG
Conditions at: ELLX (LUXEMBOURG (AUT), LU) observed 0250 UTC 07 July 2020
Temperature: 8.0°C (46°F)
Dewpoint: 6.0°C (43°F) [RH = 87%]
Pressure (altimeter): 30.18 inches Hg (1022.0 mb)
Winds: from the NNW (340 degrees) at 5 MPH (4 knots; 2.1 m/s)
Visibility: 6 or more miles (10+ km)
Ceiling: ceiling and visibility are OK
Clouds: unknown
Weather: no significant weather observed at this time

METAR text: ELLX 070220Z AUTO 34004KT 9999 NCD 09/06 Q1022 NOSIG
Conditions at: ELLX (LUXEMBOURG (AUT), LU) observed 0220 UTC 07 July 2020
Temperature: 9.0°C (48°F)
Dewpoint: 6.0°C (43°F) [RH = 81%]
Pressure (altimeter): 30.18 inches Hg (1022.0 mb)
Winds: from the NNW (340 degrees) at 5 MPH (4 knots; 2.1 m/s)
Visibility: 6 or more miles (10+ km)
Ceiling: at least 12,000 feet AGL
Clouds: sky clear below 12,000 feet AGL
Weather: no significant weather observed at this time

Forecast for: ELLX (LUXEMBOURG (AUT), LU)
Text: TAF ELLX 062300Z 0700/0806 32005KT CAVOK
Forecast period: 0000 to 0200 UTC 07 July 2020
Forecast type: FROM: standard forecast or significant change
Winds: from the NW (320 degrees) at 6 MPH (5 knots; 2.6 m/s)
Visibility: 6 or more miles 10+ km)
Ceiling: unknown
Clouds: missing
Weather: NSW  (no significant weather)
Text: BECMG 0702/0704 22006KT
Forecast period: 0200 UTC 07 July 2020 to 0600 UTC 08 July 2020
Forecast type: BECOMING: Conditions expected to become as follows by 0400 UTC 07 July 2020
Winds: from the SW (220 degrees) at 7 MPH (6 knots; 3.1 m/s)
Visibility: 6 or more miles 10+ km)
Ceiling: unknown
Clouds: missing
Weather: NSW  (no significant weather)
Text: TEMPO 0709/0715 25011KT SCT030
Forecast period: 0900 to 1500 UTC 07 July 2020
Forecast type: TEMPORARY: The following changes expected for less than half the time period
Winds: from the WSW (250 degrees) at 13 MPH (11 knots; 5.7 m/s)
Visibility: missing
Ceiling: at least 12,000 feet AGL
Clouds: scattered clouds at 3000 feet AGL
Weather: no significant weather forecast for this period

MAPA DE AEROPUERTO

INFORMACIÓN DE PISTA
Pista 06 Longitud 13123 ft Ancho 197 ft
Elevación 1158 ft Umbral desplazado 0 ft Rumbo de pista 60
Pista 24 Longitud 13123 ft Ancho 197 ft
Elevación 1214 ft Umbral desplazado 0 ft Rumbo de pista 240

FRECUANCIAS DEL AEROPUERTO
Tipo APP Nombre APP Frecuencia 118.9 MHZ
Tipo ATIS Nombre ATIS Frecuencia 135.55 MHZ
Tipo TWR Nombre TWR Frecuencia 118.1 MHZ

RADIO AYUDAS DEL AEROPUERTO
Tipo NDB Nombre Luxembourg Frecuencia 369 KHZ
Tipo VOR-DME Nombre Luxembourg Frecuencia 112250 KHZ
Tipo NDB Nombre Luxembourg Frecuencia 346 KHZ